Time;durP1;ratioP1;P1;durP2;ratioP2;P2;SDS_P1;SDS_P2;PMS_P1;PMS_P2;Temp;Humidity;BMP_temperature;BMP_pressure;BME280_temperature;BME280_humidity;BME280_pressure;Samples;Min_cycle;Max_cycle;Signal;HPM_P1;HPM_P2
2022/01/21 00:00:56;;;;;;;;;;;2.60;94.40;;;;;;5085381;28;19967;-78
2022/01/21 00:03:22;;;;;;;;;;;2.60;94.40;;;;;;5085169;28;19928;-79
2022/01/21 00:05:50;;;;;;;;;;;2.60;94.40;;;;;;5081716;28;20333;-78
2022/01/21 00:08:17;;;;;;;;;;;2.60;94.40;;;;;;5085302;28;19928;-78
2022/01/21 00:10:44;;;;;;;;;;;2.60;94.40;;;;;;5085268;28;19928;-79
2022/01/21 00:13:19;;;;;;;;;;;2.60;94.40;;;;;;5087622;28;20394;-79
2022/01/21 00:15:45;;;;;;;;;;;2.60;94.40;;;;;;5081599;28;19931;-78
2022/01/21 00:18:12;;;;;;;;;;;2.60;94.40;;;;;;5085197;28;19927;-79
2022/01/21 00:31:37;;;;;;;;;;;2.60;94.30;;;;;;5081787;28;19986;-79
2022/01/21 00:34:05;;;;;;;;;;;2.60;94.40;;;;;;5085190;28;19932;-78
2022/01/21 00:36:32;;;;;;;;;;;2.60;94.40;;;;;;5087073;28;19928;-79
2022/01/21 00:39:00;;;;;;;;;;;2.60;94.30;;;;;;5082792;28;19927;-78
2022/01/21 00:41:31;;;;;;;;;;;2.60;94.30;;;;;;5092213;28;19939;-78
2022/01/21 00:43:57;;;;;;;;;;;2.60;94.30;;;;;;5090645;28;20028;-77
2022/01/21 00:46:24;;;;;;;;;;;2.50;94.30;;;;;;5090923;28;20474;-80
2022/01/21 00:48:50;;;;;;;;;;;2.60;94.30;;;;;;5086045;28;20065;-78
2022/01/21 00:51:17;;;;;;;;;;;2.50;94.60;;;;;;5089770;28;20740;-79
2022/01/21 00:53:44;;;;;;;;;;;2.60;94.40;;;;;;5087700;28;20026;-78
2022/01/21 00:56:11;;;;;;;;;;;2.60;94.40;;;;;;5086758;28;19981;-78
2022/01/21 00:58:38;;;;;;;;;;;2.50;94.40;;;;;;5091479;28;19935;-79
2022/01/21 01:01:04;;;;;;;;;;;2.50;94.40;;;;;;5091848;28;20387;-79
2022/01/21 01:03:31;;;;;;;;;;;2.60;94.40;;;;;;5085481;28;19928;-77
2022/01/21 01:05:58;;;;;;;;;;;2.50;94.40;;;;;;5091863;28;20412;-79
2022/01/21 01:08:24;;;;;;;;;;;2.50;94.40;;;;;;5089353;28;19928;-78
2022/01/21 01:11:14;;;;;;;;;;;2.50;94.40;;;;;;5087834;28;20416;-78
2022/01/21 01:21:56;;;;;;;;;;;2.50;94.40;;;;;;5086925;28;19930;-78
2022/01/21 01:29:53;;;;;;;;;;;2.50;94.40;;;;;;5084933;28;20665;-79
2022/01/21 01:32:20;;;;;;;;;;;2.50;94.50;;;;;;5084251;28;19935;-78
2022/01/21 01:34:46;;;;;;;;;;;2.50;94.40;;;;;;5087690;28;20018;-78
2022/01/21 01:37:25;;;;;;;;;;;2.40;94.40;;;;;;5087149;28;19936;-79
2022/01/21 01:40:01;;;;;;;;;;;2.40;94.40;;;;;;5086826;28;19928;-78
2022/01/21 01:42:53;;;;;;;;;;;2.40;94.40;;;;;;5093713;28;19982;-79
2022/01/21 01:51:02;;;;;;;;;;;2.40;94.40;;;;;;5084384;28;19981;-77
2022/01/21 01:53:32;;;;;;;;;;;2.40;94.40;;;;;;5092034;28;19927;-77
2022/01/21 01:55:58;;;;;;;;;;;2.40;94.40;;;;;;5083072;28;19931;-75
2022/01/21 01:58:25;;;;;;;;;;;2.40;94.40;;;;;;5086187;28;20574;-79
2022/01/21 02:00:56;;;;;;;;;;;2.40;94.40;;;;;;5084701;28;19927;-77
2022/01/21 02:03:23;;;;;;;;;;;2.40;94.40;;;;;;5086116;28;19928;-78
2022/01/21 02:05:49;;;;;;;;;;;2.40;94.50;;;;;;5089507;28;19943;-77
2022/01/21 02:08:16;;;;;;;;;;;2.40;94.40;;;;;;5085287;28;19928;-78
2022/01/21 02:10:43;;;;;;;;;;;2.40;94.40;;;;;;5088501;28;20773;-78
2022/01/21 02:13:20;;;;;;;;;;;2.40;94.40;;;;;;5086873;28;20444;-78
2022/01/21 02:15:58;;;;;;;;;;;2.30;94.40;;;;;;5087866;28;20015;-78
2022/01/21 02:21:32;;;;;;;;;;;2.30;94.40;;;;;;5082114;28;19971;-78
2022/01/21 02:23:59;;;;;;;;;;;2.30;94.40;;;;;;5086622;28;20439;-76
2022/01/21 02:26:26;;;;;;;;;;;2.30;94.40;;;;;;5083852;28;19954;-78
2022/01/21 02:28:54;;;;;;;;;;;2.30;94.50;;;;;;5081787;28;19928;-77
2022/01/21 02:31:20;;;;;;;;;;;2.30;94.50;;;;;;5089241;28;19928;-77
2022/01/21 02:33:47;;;;;;;;;;;2.30;94.50;;;;;;5081387;28;19928;-78
2022/01/21 02:36:15;;;;;;;;;;;2.30;94.50;;;;;;5092087;28;19928;-76
2022/01/21 02:38:42;;;;;;;;;;;2.30;94.50;;;;;;5085002;28;19928;-78
2022/01/21 02:41:08;;;;;;;;;;;2.20;94.50;;;;;;5091859;28;19953;-77
2022/01/21 02:43:35;;;;;;;;;;;2.20;94.50;;;;;;5088594;28;19932;-78
2022/01/21 02:46:05;;;;;;;;;;;2.20;94.60;;;;;;5087460;28;19928;-79
2022/01/21 02:48:37;;;;;;;;;;;2.20;94.60;;;;;;5079606;28;19985;-77
2022/01/21 02:51:04;;;;;;;;;;;2.20;94.60;;;;;;5084005;28;20019;-79
2022/01/21 02:54:03;;;;;;;;;;;2.20;94.60;;;;;;5084957;28;19928;-79
2022/01/21 02:56:25;;;;;;;;;;;2.20;94.60;;;;;;5087721;28;19932;-78
2022/01/21 02:58:52;;;;;;;;;;;2.20;94.60;;;;;;5083939;28;19936;-77
2022/01/21 03:01:19;;;;;;;;;;;2.20;94.60;;;;;;5090696;28;19931;-78
2022/01/21 03:03:46;;;;;;;;;;;2.20;94.60;;;;;;5082106;28;19938;-77
2022/01/21 03:06:14;;;;;;;;;;;2.20;94.60;;;;;;5090563;28;19932;-78
2022/01/21 03:08:43;;;;;;;;;;;2.20;94.60;;;;;;5084111;28;19973;-77
2022/01/21 03:11:11;;;;;;;;;;;2.10;94.60;;;;;;5088661;28;20026;-77
2022/01/21 03:13:38;;;;;;;;;;;2.10;94.60;;;;;;5081457;28;19932;-78
2022/01/21 03:16:05;;;;;;;;;;;2.10;94.70;;;;;;5089555;28;19954;-78
2022/01/21 03:18:31;;;;;;;;;;;2.10;94.70;;;;;;5076618;28;19986;-78
2022/01/21 03:20:58;;;;;;;;;;;2.10;94.80;;;;;;5084520;28;20338;-77
2022/01/21 03:23:27;;;;;;;;;;;2.10;94.80;;;;;;5080382;28;19938;-77
2022/01/21 03:25:55;;;;;;;;;;;2.10;94.80;;;;;;5084447;28;19974;-77
2022/01/21 03:28:22;;;;;;;;;;;2.10;94.80;;;;;;5082238;28;19927;-77
2022/01/21 03:30:50;;;;;;;;;;;2.00;94.80;;;;;;5082914;28;20149;-79
2022/01/21 03:33:17;;;;;;;;;;;2.00;94.80;;;;;;5077916;28;20224;-77
2022/01/21 03:35:43;;;;;;;;;;;2.00;94.80;;;;;;5083562;28;19935;-78
2022/01/21 03:38:10;;;;;;;;;;;2.00;94.80;;;;;;5085713;28;19928;-78
2022/01/21 03:40:36;;;;;;;;;;;2.00;94.80;;;;;;5086523;28;19937;-76
2022/01/21 03:43:04;;;;;;;;;;;2.00;94.90;;;;;;5085696;28;19940;-78
2022/01/21 03:45:31;;;;;;;;;;;1.90;94.90;;;;;;5087459;28;19977;-78
2022/01/21 03:47:58;;;;;;;;;;;2.00;94.90;;;;;;5084956;28;20287;-78
2022/01/21 03:50:31;;;;;;;;;;;2.00;95.00;;;;;;5089972;28;20238;-78
2022/01/21 03:52:58;;;;;;;;;;;1.90;95.00;;;;;;5084781;28;19928;-77
2022/01/21 03:55:24;;;;;;;;;;;1.90;95.00;;;;;;5093720;28;20365;-78
2022/01/21 03:57:51;;;;;;;;;;;1.90;95.00;;;;;;5082643;28;19928;-78
2022/01/21 04:00:21;;;;;;;;;;;1.90;95.00;;;;;;5081954;28;20390;-79
2022/01/21 04:02:47;;;;;;;;;;;1.90;95.00;;;;;;5081013;28;19936;-77
2022/01/21 04:05:14;;;;;;;;;;;1.80;95.00;;;;;;5083773;28;19935;-78
2022/01/21 04:07:40;;;;;;;;;;;1.80;95.00;;;;;;5085585;28;19975;-78
2022/01/21 04:10:07;;;;;;;;;;;1.80;95.00;;;;;;5083947;28;19931;-76
2022/01/21 04:12:34;;;;;;;;;;;1.80;94.90;;;;;;5084035;28;19952;-77
2022/01/21 04:15:00;;;;;;;;;;;1.80;94.90;;;;;;5085521;28;20264;-77
2022/01/21 04:17:28;;;;;;;;;;;1.80;95.00;;;;;;5082686;28;19974;-78
2022/01/21 04:19:55;;;;;;;;;;;1.80;95.00;;;;;;5092067;28;20564;-78
2022/01/21 04:22:22;;;;;;;;;;;1.80;95.00;;;;;;5089066;28;19928;-77
2022/01/21 04:24:50;;;;;;;;;;;1.80;95.00;;;;;;5083137;28;19928;-76
2022/01/21 04:27:17;;;;;;;;;;;1.70;95.00;;;;;;5087234;28;19966;-77
2022/01/21 04:29:44;;;;;;;;;;;1.70;95.00;;;;;;5084921;28;19985;-77
2022/01/21 04:32:10;;;;;;;;;;;1.90;95.00;;;;;;5083311;28;19932;-76
2022/01/21 04:34:39;;;;;;;;;;;1.80;95.00;;;;;;5085916;28;19932;-78
2022/01/21 04:37:09;;;;;;;;;;;1.80;95.00;;;;;;5085952;28;19933;-78
2022/01/21 04:39:41;;;;;;;;;;;1.80;95.10;;;;;;5083555;28;20447;-77
2022/01/21 04:47:39;;;;;;;;;;;1.70;95.00;;;;;;5075249;28;20011;-79
2022/01/21 04:50:11;;;;;;;;;;;1.70;95.00;;;;;;5088928;28;20631;-77
2022/01/21 04:52:38;;;;;;;;;;;1.70;95.00;;;;;;5086743;28;19928;-77
2022/01/21 04:55:05;;;;;;;;;;;1.70;95.10;;;;;;5088806;28;19982;-78
2022/01/21 04:57:32;;;;;;;;;;;1.70;95.10;;;;;;5092397;28;19928;-77
2022/01/21 04:59:58;;;;;;;;;;;1.70;95.10;;;;;;5086157;28;19935;-77
2022/01/21 05:02:27;;;;;;;;;;;1.70;95.10;;;;;;5084581;28;19932;-78
2022/01/21 05:04:54;;;;;;;;;;;1.70;95.10;;;;;;5083018;28;19976;-78
2022/01/21 05:07:25;;;;;;;;;;;1.60;95.10;;;;;;5088533;28;19943;-78
2022/01/21 05:09:51;;;;;;;;;;;1.60;95.10;;;;;;5087087;28;19974;-77
2022/01/21 05:12:20;;;;;;;;;;;1.60;95.20;;;;;;5085791;28;19996;-79
2022/01/21 05:15:03;;;;;;;;;;;1.60;95.20;;;;;;5085728;28;19954;-76
2022/01/21 05:17:30;;;;;;;;;;;1.60;95.20;;;;;;5077572;28;19959;-77
2022/01/21 05:19:56;;;;;;;;;;;1.60;95.20;;;;;;5088853;28;19932;-78
2022/01/21 05:22:24;;;;;;;;;;;1.60;95.20;;;;;;5084746;28;19931;-79
2022/01/21 05:24:51;;;;;;;;;;;1.60;95.20;;;;;;5084672;28;19943;-78
2022/01/21 05:27:17;;;;;;;;;;;1.60;95.20;;;;;;5085880;28;19958;-77
2022/01/21 05:29:44;;;;;;;;;;;1.50;95.20;;;;;;5085075;28;19943;-79
2022/01/21 05:32:10;;;;;;;;;;;1.50;95.20;;;;;;5080766;28;19935;-76
2022/01/21 05:34:37;;;;;;;;;;;1.50;95.20;;;;;;5084438;28;19927;-78
2022/01/21 05:37:04;;;;;;;;;;;1.50;95.20;;;;;;5092137;28;19928;-78
2022/01/21 05:39:32;;;;;;;;;;;1.50;95.30;;;;;;5088375;28;19957;-77
2022/01/21 05:42:00;;;;;;;;;;;1.50;95.20;;;;;;5086647;28;20333;-77
2022/01/21 05:47:08;;;;;;;;;;;1.50;95.30;;;;;;5052749;28;19981;-78
2022/01/21 05:49:36;;;;;;;;;;;1.50;95.20;;;;;;5089121;28;19928;-79
2022/01/21 05:52:06;;;;;;;;;;;1.40;95.20;;;;;;5088600;28;20015;-78
2022/01/21 05:54:34;;;;;;;;;;;1.40;95.20;;;;;;5092031;28;20461;-78
2022/01/21 05:57:04;;;;;;;;;;;1.40;95.20;;;;;;5077651;28;20412;-76
2022/01/21 05:59:31;;;;;;;;;;;1.40;95.30;;;;;;5078008;28;20304;-78
2022/01/21 06:01:57;;;;;;;;;;;1.40;95.30;;;;;;5076828;28;19940;-77
2022/01/21 06:04:24;;;;;;;;;;;1.40;95.30;;;;;;5072930;28;19936;-80
2022/01/21 06:06:50;;;;;;;;;;;1.40;95.30;;;;;;5075458;28;19990;-78
2022/01/21 06:09:17;;;;;;;;;;;1.40;95.30;;;;;;5083681;28;19931;-78
2022/01/21 06:11:45;;;;;;;;;;;1.40;95.30;;;;;;5082491;28;19935;-77
2022/01/21 06:14:11;;;;;;;;;;;1.40;95.30;;;;;;5082741;28;19958;-78
2022/01/21 06:16:40;;;;;;;;;;;1.40;95.40;;;;;;5081602;28;19928;-78
2022/01/21 06:19:06;;;;;;;;;;;1.40;95.40;;;;;;5078233;28;19958;-77
2022/01/21 06:21:33;;;;;;;;;;;1.40;95.40;;;;;;5080370;28;19928;-78
2022/01/21 06:24:00;;;;;;;;;;;1.30;95.30;;;;;;5085800;28;19928;-78
2022/01/21 06:26:26;;;;;;;;;;;1.30;95.30;;;;;;5084033;28;19939;-77
2022/01/21 06:28:54;;;;;;;;;;;1.30;95.30;;;;;;5083641;28;20009;-79
2022/01/21 06:31:21;;;;;;;;;;;1.30;95.30;;;;;;5078911;28;19981;-80
2022/01/21 06:33:47;;;;;;;;;;;1.30;95.30;;;;;;5080563;28;19932;-79
2022/01/21 06:36:14;;;;;;;;;;;1.30;95.30;;;;;;5081687;28;19928;-80
2022/01/21 06:38:40;;;;;;;;;;;1.30;95.20;;;;;;5078827;28;19939;-77
2022/01/21 06:41:07;;;;;;;;;;;1.30;94.60;;;;;;5083367;28;19939;-79
2022/01/21 06:43:33;;;;;;;;;;;1.30;94.50;;;;;;5093123;28;20402;-80
2022/01/21 06:46:01;;;;;;;;;;;1.20;94.50;;;;;;5081656;28;20363;-80
2022/01/21 06:48:28;;;;;;;;;;;1.30;94.60;;;;;;5083971;28;19932;-79
2022/01/21 06:50:54;;;;;;;;;;;1.30;94.60;;;;;;5088626;28;19932;-80
2022/01/21 06:53:21;;;;;;;;;;;1.30;94.70;;;;;;5083133;28;19936;-79
2022/01/21 06:55:47;;;;;;;;;;;1.30;94.70;;;;;;5083383;28;19932;-79
2022/01/21 06:58:14;;;;;;;;;;;1.30;94.80;;;;;;5088793;28;19931;-79
2022/01/21 07:00:41;;;;;;;;;;;1.30;94.80;;;;;;5082904;28;20396;-78
2022/01/21 07:03:09;;;;;;;;;;;1.30;94.80;;;;;;5084009;28;20399;-80
2022/01/21 07:05:35;;;;;;;;;;;1.30;94.90;;;;;;5087305;28;19932;-80
2022/01/21 07:08:02;;;;;;;;;;;1.30;94.90;;;;;;5082139;28;19935;-80
2022/01/21 07:10:30;;;;;;;;;;;1.30;94.90;;;;;;5082038;28;20416;-78
2022/01/21 07:12:56;;;;;;;;;;;1.30;95.00;;;;;;5081316;28;19970;-78
2022/01/21 07:15:23;;;;;;;;;;;1.30;95.00;;;;;;5081662;28;19965;-79
2022/01/21 07:17:52;;;;;;;;;;;1.30;95.00;;;;;;5080140;28;20364;-80
2022/01/21 07:20:20;;;;;;;;;;;1.30;95.00;;;;;;5072995;28;19932;-79
2022/01/21 07:22:47;;;;;;;;;;;1.30;95.00;;;;;;5079086;28;20423;-77
2022/01/21 07:25:14;;;;;;;;;;;1.30;95.00;;;;;;5075053;28;19931;-78
2022/01/21 07:27:41;;;;;;;;;;;1.30;95.00;;;;;;5085551;28;20016;-79
2022/01/21 07:30:09;;;;;;;;;;;1.30;95.00;;;;;;5080014;28;19934;-79
2022/01/21 07:32:35;;;;;;;;;;;1.30;95.10;;;;;;5083603;28;20415;-80
2022/01/21 07:35:02;;;;;;;;;;;1.30;95.10;;;;;;5090393;28;19932;-78
2022/01/21 07:37:30;;;;;;;;;;;1.30;95.10;;;;;;5084312;28;19924;-78
2022/01/21 07:39:56;;;;;;;;;;;1.30;95.10;;;;;;5081822;28;19928;-79
2022/01/21 07:42:24;;;;;;;;;;;1.30;95.10;;;;;;5085516;28;19935;-78
2022/01/21 07:44:50;;;;;;;;;;;1.30;95.40;;;;;;5075893;28;19977;-80
2022/01/21 07:47:17;;;;;;;;;;;1.30;95.10;;;;;;5084844;28;20243;-76
2022/01/21 07:49:44;;;;;;;;;;;1.30;95.20;;;;;;5089184;28;19928;-76
2022/01/21 07:52:11;;;;;;;;;;;1.30;95.20;;;;;;5089559;28;19928;-77
2022/01/21 07:54:40;;;;;;;;;;;1.30;95.20;;;;;;5084475;28;19928;-78
2022/01/21 07:57:06;;;;;;;;;;;1.30;95.20;;;;;;5091397;28;19932;-76
2022/01/21 07:59:33;;;;;;;;;;;1.30;95.20;;;;;;5086896;28;19950;-78
2022/01/21 08:01:59;;;;;;;;;;;1.30;95.20;;;;;;5085370;28;19958;-76
2022/01/21 08:04:26;;;;;;;;;;;1.30;95.20;;;;;;5092818;28;19932;-76
2022/01/21 08:06:53;;;;;;;;;;;1.30;95.20;;;;;;5089268;28;20307;-78
2022/01/21 08:09:23;;;;;;;;;;;1.30;95.10;;;;;;5088728;28;19954;-78
2022/01/21 08:11:51;;;;;;;;;;;1.30;95.10;;;;;;5090417;28;20020;-78
2022/01/21 08:14:18;;;;;;;;;;;1.30;95.10;;;;;;5089371;28;20750;-77
2022/01/21 08:16:45;;;;;;;;;;;1.30;95.10;;;;;;5089746;28;20467;-78
2022/01/21 08:19:13;;;;;;;;;;;1.30;95.10;;;;;;5088007;28;19928;-79
2022/01/21 08:21:39;;;;;;;;;;;1.30;95.10;;;;;;5091160;28;20006;-76
2022/01/21 08:24:07;;;;;;;;;;;1.30;95.00;;;;;;5092016;28;19941;-78
2022/01/21 08:26:34;;;;;;;;;;;1.30;95.00;;;;;;5099052;28;20097;-77
2022/01/21 08:29:03;;;;;;;;;;;1.30;95.00;;;;;;5093278;28;19930;-78
2022/01/21 08:31:29;;;;;;;;;;;1.30;95.00;;;;;;5090794;28;19928;-78
2022/01/21 08:33:56;;;;;;;;;;;1.30;95.00;;;;;;5088154;28;20656;-76
2022/01/21 08:36:23;;;;;;;;;;;1.30;95.00;;;;;;5092201;28;19928;-78
2022/01/21 08:38:50;;;;;;;;;;;1.30;95.00;;;;;;5100919;28;20442;-76
2022/01/21 08:41:17;;;;;;;;;;;1.30;95.00;;;;;;5092745;28;19928;-77
2022/01/21 08:43:44;;;;;;;;;;;1.30;94.90;;;;;;5101880;28;19932;-79
2022/01/21 08:46:11;;;;;;;;;;;1.30;94.90;;;;;;5091203;28;20395;-76
2022/01/21 08:48:38;;;;;;;;;;;1.30;94.90;;;;;;5093660;28;19943;-79
2022/01/21 08:51:09;;;;;;;;;;;1.30;94.80;;;;;;5090166;28;20026;-78
2022/01/21 08:53:41;;;;;;;;;;;1.30;94.80;;;;;;5089783;28;19985;-77
2022/01/21 08:56:10;;;;;;;;;;;1.30;94.80;;;;;;5096438;28;20022;-78
2022/01/21 08:58:37;;;;;;;;;;;1.40;94.80;;;;;;5083584;28;19928;-78
2022/01/21 09:01:04;;;;;;;;;;;1.40;94.80;;;;;;5096584;28;19935;-78
2022/01/21 09:03:32;;;;;;;;;;;1.40;94.70;;;;;;5097324;28;19981;-79
2022/01/21 09:05:59;;;;;;;;;;;1.40;94.70;;;;;;5096676;28;19939;-79
2022/01/21 09:08:29;;;;;;;;;;;1.40;94.70;;;;;;5091844;28;19943;-77
2022/01/21 09:10:57;;;;;;;;;;;1.40;94.60;;;;;;5083766;28;19935;-77
2022/01/21 09:13:26;;;;;;;;;;;1.40;94.70;;;;;;5093707;28;19975;-79
2022/01/21 09:15:54;;;;;;;;;;;1.40;94.70;;;;;;5084897;28;19936;-79
2022/01/21 09:18:21;;;;;;;;;;;1.40;94.60;;;;;;5087090;28;19937;-79
2022/01/21 09:20:49;;;;;;;;;;;1.40;94.60;;;;;;5087798;28;19928;-79
2022/01/21 09:23:15;;;;;;;;;;;1.40;94.60;;;;;;5083459;28;19936;-77
2022/01/21 09:25:42;;;;;;;;;;;1.50;94.60;;;;;;5080644;28;19928;-79
2022/01/21 09:28:09;;;;;;;;;;;1.50;94.60;;;;;;5086884;28;19940;-77
2022/01/21 09:30:35;;;;;;;;;;;1.50;94.60;;;;;;5086983;28;20695;-79
2022/01/21 09:33:02;;;;;;;;;;;1.50;94.60;;;;;;5080703;28;20300;-79
2022/01/21 09:35:29;;;;;;;;;;;1.50;94.60;;;;;;5088401;28;20304;-78
2022/01/21 09:37:56;;;;;;;;;;;1.50;94.60;;;;;;5084839;28;19928;-81
2022/01/21 09:40:29;;;;;;;;;;;1.50;94.70;;;;;;5084684;28;19924;-79
2022/01/21 09:42:56;;;;;;;;;;;1.50;94.60;;;;;;5084780;28;19928;-78
2022/01/21 09:45:24;;;;;;;;;;;1.60;94.70;;;;;;5088315;28;19935;-78
2022/01/21 09:47:54;;;;;;;;;;;1.60;94.80;;;;;;5083074;28;20384;-78
2022/01/21 09:50:22;;;;;;;;;;;1.60;94.80;;;;;;5076265;28;19932;-78
2022/01/21 09:52:49;;;;;;;;;;;1.60;94.80;;;;;;5084601;28;19932;-78
2022/01/21 09:55:20;;;;;;;;;;;1.60;94.80;;;;;;5083524;28;19928;-77
2022/01/21 09:57:47;;;;;;;;;;;1.60;94.80;;;;;;5081159;28;19931;-79
2022/01/21 10:00:15;;;;;;;;;;;1.60;94.80;;;;;;5080812;28;19935;-78
2022/01/21 10:02:43;;;;;;;;;;;1.60;94.80;;;;;;5081169;28;19928;-79
2022/01/21 10:05:09;;;;;;;;;;;1.70;94.80;;;;;;5085627;28;20015;-78
2022/01/21 10:07:36;;;;;;;;;;;1.70;94.80;;;;;;5085348;28;19928;-78
2022/01/21 10:10:07;;;;;;;;;;;1.70;94.80;;;;;;5085171;28;19983;-78
2022/01/21 10:12:36;;;;;;;;;;;1.70;94.80;;;;;;5081260;28;19935;-79
2022/01/21 10:15:02;;;;;;;;;;;1.70;94.70;;;;;;5084352;28;19963;-78
2022/01/21 10:17:29;;;;;;;;;;;1.70;94.70;;;;;;5079895;28;19945;-78
2022/01/21 10:20:11;;;;;;;;;;;1.80;94.70;;;;;;5084818;28;19932;-78
2022/01/21 10:22:38;;;;;;;;;;;1.80;94.70;;;;;;5077168;28;19969;-78
2022/01/21 10:25:07;;;;;;;;;;;1.80;94.70;;;;;;5080613;28;19985;-79
2022/01/21 10:27:38;;;;;;;;;;;1.80;95.00;;;;;;5080808;28;19928;-79
2022/01/21 10:30:18;;;;;;;;;;;1.80;94.60;;;;;;5074831;28;19929;-78
2022/01/21 10:32:45;;;;;;;;;;;1.80;94.60;;;;;;5072027;28;19936;-77
2022/01/21 10:35:19;;;;;;;;;;;1.90;94.60;;;;;;5074826;28;19935;-77
2022/01/21 10:37:46;;;;;;;;;;;1.90;94.60;;;;;;5078786;28;19935;-77
2022/01/21 10:40:12;;;;;;;;;;;1.90;94.60;;;;;;5082395;28;20031;-78
2022/01/21 10:42:40;;;;;;;;;;;1.90;94.50;;;;;;5086167;28;19928;-76
2022/01/21 10:45:08;;;;;;;;;;;2.00;94.50;;;;;;5082982;28;19939;-77
2022/01/21 10:47:36;;;;;;;;;;;2.00;94.50;;;;;;5082377;28;19931;-77
2022/01/21 10:50:05;;;;;;;;;;;2.00;94.40;;;;;;5072918;28;20387;-76
2022/01/21 10:52:32;;;;;;;;;;;2.10;94.40;;;;;;5073681;28;20135;-77
2022/01/21 10:54:59;;;;;;;;;;;2.10;94.30;;;;;;5081400;28;19932;-75
2022/01/21 10:57:28;;;;;;;;;;;2.10;94.30;;;;;;5082796;28;19935;-77
2022/01/21 10:59:58;;;;;;;;;;;2.10;94.20;;;;;;5080207;28;20459;-78
2022/01/21 11:02:39;;;;;;;;;;;2.20;94.20;;;;;;5083436;28;21363;-76
2022/01/21 11:05:10;;;;;;;;;;;2.20;94.20;;;;;;5087455;28;19928;-77
2022/01/21 11:07:50;;;;;;;;;;;2.20;94.20;;;;;;5080841;28;19928;-78
2022/01/21 11:10:42;;;;;;;;;;;2.20;94.10;;;;;;5081017;28;19975;-78
2022/01/21 11:13:29;;;;;;;;;;;2.20;94.10;;;;;;5073171;28;19932;-78
2022/01/21 11:15:58;;;;;;;;;;;2.20;94.10;;;;;;5072379;28;19928;-77
2022/01/21 11:18:26;;;;;;;;;;;2.30;94.10;;;;;;5083892;28;19973;-77
2022/01/21 11:20:56;;;;;;;;;;;2.30;94.10;;;;;;5088899;28;21147;-78
2022/01/21 11:23:23;;;;;;;;;;;2.30;94.10;;;;;;5080984;28;19932;-78
2022/01/21 11:25:50;;;;;;;;;;;2.30;94.10;;;;;;5077486;28;20009;-77
2022/01/21 11:28:17;;;;;;;;;;;2.30;94.00;;;;;;5083477;28;19931;-77
2022/01/21 11:30:44;;;;;;;;;;;2.40;94.00;;;;;;5079729;28;19989;-78
2022/01/21 11:33:12;;;;;;;;;;;2.40;94.00;;;;;;5076436;28;19952;-76
2022/01/21 11:35:39;;;;;;;;;;;2.40;94.00;;;;;;5073314;28;19932;-78
2022/01/21 11:38:07;;;;;;;;;;;2.40;93.90;;;;;;5078385;28;20010;-77
2022/01/21 11:40:33;;;;;;;;;;;2.50;93.80;;;;;;5080005;28;19982;-78
2022/01/21 11:43:00;;;;;;;;;;;2.50;93.80;;;;;;5079569;28;19928;-76
2022/01/21 11:45:43;;;;;;;;;;;2.50;93.70;;;;;;5074369;28;19939;-78
2022/01/21 11:48:50;;;;;;;;;;;2.50;93.80;;;;;;5079306;28;19932;-78
2022/01/21 11:51:01;;;;;;;;;;;2.50;93.80;;;;;;5083327;28;19927;-77
2022/01/21 11:53:44;;;;;;;;;;;2.60;93.70;;;;;;5082050;28;19932;-78
2022/01/21 11:56:28;;;;;;;;;;;2.60;93.70;;;;;;5078004;28;19936;-77
2022/01/21 11:59:05;;;;;;;;;;;2.60;93.70;;;;;;5075824;28;19931;-78
2022/01/21 12:01:33;;;;;;;;;;;2.60;93.70;;;;;;5078405;28;19939;-77
2022/01/21 12:04:03;;;;;;;;;;;2.70;93.70;;;;;;5078823;28;20011;-77
2022/01/21 12:06:32;;;;;;;;;;;2.70;93.70;;;;;;5081078;28;20019;-78
2022/01/21 12:09:01;;;;;;;;;;;2.70;93.70;;;;;;5075954;28;20573;-77
2022/01/21 12:11:34;;;;;;;;;;;2.80;93.70;;;;;;5080511;28;19928;-76
2022/01/21 12:14:03;;;;;;;;;;;2.80;93.70;;;;;;5077676;28;19935;-77
2022/01/21 12:16:49;;;;;;;;;;;2.80;93.70;;;;;;5073410;28;20379;-77
2022/01/21 12:19:24;;;;;;;;;;;2.80;93.60;;;;;;5084593;28;20213;-77
2022/01/21 12:21:53;;;;;;;;;;;2.80;93.60;;;;;;5083287;28;20437;-77
2022/01/21 12:24:37;;;;;;;;;;;2.80;93.50;;;;;;5078912;28;19950;-76
2022/01/21 12:27:09;;;;;;;;;;;2.80;93.60;;;;;;5063856;28;20193;-77
2022/01/21 12:29:35;;;;;;;;;;;2.80;93.60;;;;;;5080880;28;19936;-76
2022/01/21 12:32:07;;;;;;;;;;;2.80;93.60;;;;;;5077729;28;19935;-77
2022/01/21 12:34:52;;;;;;;;;;;2.90;93.70;;;;;;5077757;28;20384;-77
2022/01/21 12:37:24;;;;;;;;;;;2.90;93.70;;;;;;5088516;28;19938;-78
2022/01/21 12:39:51;;;;;;;;;;;2.90;93.70;;;;;;5080978;28;20036;-78
2022/01/21 12:42:25;;;;;;;;;;;2.90;93.70;;;;;;5082157;28;20333;-77
2022/01/21 12:44:52;;;;;;;;;;;2.90;93.70;;;;;;5076215;28;20033;-79
2022/01/21 12:47:29;;;;;;;;;;;2.90;93.70;;;;;;5080912;28;19939;-77
2022/01/21 12:49:56;;;;;;;;;;;2.90;93.70;;;;;;5089334;28;19928;-76
2022/01/21 12:52:45;;;;;;;;;;;3.00;93.80;;;;;;5081162;28;19934;-77
2022/01/21 12:58:04;;;;;;;;;;;3.00;93.60;;;;;;5086099;28;19931;-77
2022/01/21 13:00:30;;;;;;;;;;;3.00;93.50;;;;;;5082428;28;19932;-77
2022/01/21 13:03:00;;;;;;;;;;;3.00;93.50;;;;;;5084800;28;19928;-78
2022/01/21 13:05:32;;;;;;;;;;;3.00;93.50;;;;;;5087884;28;19936;-76
2022/01/21 13:08:06;;;;;;;;;;;3.00;93.50;;;;;;5082643;28;19936;-77
2022/01/21 13:10:32;;;;;;;;;;;3.10;93.60;;;;;;5083491;28;19932;-76
2022/01/21 13:13:13;;;;;;;;;;;3.10;93.60;;;;;;5076676;28;19932;-77
2022/01/21 13:15:41;;;;;;;;;;;3.10;93.60;;;;;;5081988;28;19936;-77
2022/01/21 13:18:08;;;;;;;;;;;3.20;93.70;;;;;;5076637;28;20338;-76
2022/01/21 13:20:36;;;;;;;;;;;3.20;93.60;;;;;;5082329;28;19928;-76
2022/01/21 13:23:04;;;;;;;;;;;3.20;93.60;;;;;;5081785;28;19928;-77
2022/01/21 13:25:32;;;;;;;;;;;3.20;93.50;;;;;;5086735;28;19935;-77
2022/01/21 13:28:00;;;;;;;;;;;3.30;93.60;;;;;;5082688;28;19943;-76
2022/01/21 13:30:28;;;;;;;;;;;3.30;93.40;;;;;;5073102;28;19928;-76
2022/01/21 13:32:59;;;;;;;;;;;3.30;93.30;;;;;;5076922;28;19963;-77
2022/01/21 13:35:25;;;;;;;;;;;3.40;93.30;;;;;;5080881;28;19932;-77
2022/01/21 13:38:03;;;;;;;;;;;3.40;93.20;;;;;;5081742;28;19924;-77
2022/01/21 13:40:34;;;;;;;;;;;3.40;93.10;;;;;;5084230;28;19955;-75
2022/01/21 13:43:08;;;;;;;;;;;3.50;93.00;;;;;;5083414;28;19928;-76
2022/01/21 13:45:34;;;;;;;;;;;3.50;92.80;;;;;;5080457;28;19954;-77
2022/01/21 13:48:03;;;;;;;;;;;3.50;93.10;;;;;;5082375;28;20065;-76
2022/01/21 13:50:30;;;;;;;;;;;3.50;92.70;;;;;;5088237;28;19935;-78
2022/01/21 13:53:00;;;;;;;;;;;3.50;92.70;;;;;;5085237;28;19955;-76
2022/01/21 13:55:28;;;;;;;;;;;3.60;92.60;;;;;;5077558;28;19928;-77
2022/01/21 13:57:57;;;;;;;;;;;3.60;92.50;;;;;;5079022;28;19997;-76
2022/01/21 14:00:32;;;;;;;;;;;3.60;92.40;;;;;;5084467;28;20005;-76
2022/01/21 14:03:02;;;;;;;;;;;3.60;92.50;;;;;;5086542;28;19928;-76
2022/01/21 14:05:41;;;;;;;;;;;3.70;92.40;;;;;;5088030;28;19928;-77
2022/01/21 14:08:09;;;;;;;;;;;3.70;92.30;;;;;;5085624;28;19940;-76
2022/01/21 14:10:36;;;;;;;;;;;3.70;92.30;;;;;;5072224;28;19931;-77
2022/01/21 14:13:05;;;;;;;;;;;3.70;92.30;;;;;;5081336;28;19928;-77
2022/01/21 14:15:31;;;;;;;;;;;3.70;92.40;;;;;;5076312;28;19932;-77
2022/01/21 14:17:58;;;;;;;;;;;3.70;92.50;;;;;;5085481;28;19950;-78
2022/01/21 14:20:25;;;;;;;;;;;3.70;92.30;;;;;;5087459;28;19928;-76
2022/01/21 14:22:51;;;;;;;;;;;3.70;92.40;;;;;;5081367;28;19928;-77
2022/01/21 14:25:18;;;;;;;;;;;3.70;92.40;;;;;;5081239;28;20432;-78
2022/01/21 14:27:48;;;;;;;;;;;3.70;92.30;;;;;;5081448;28;19932;-77
2022/01/21 14:30:17;;;;;;;;;;;3.70;92.40;;;;;;5079297;28;19928;-78
2022/01/21 14:32:48;;;;;;;;;;;3.70;92.40;;;;;;5076503;28;19951;-77
2022/01/21 14:35:16;;;;;;;;;;;3.70;92.60;;;;;;5082001;28;19935;-77
2022/01/21 14:37:43;;;;;;;;;;;3.70;92.60;;;;;;5083432;28;19934;-76
2022/01/21 14:40:11;;;;;;;;;;;3.70;92.60;;;;;;5087162;28;19928;-77
2022/01/21 14:42:37;;;;;;;;;;;3.70;92.70;;;;;;5088239;28;19928;-75
2022/01/21 14:45:11;;;;;;;;;;;3.70;92.70;;;;;;5085536;28;19929;-76
2022/01/21 14:47:39;;;;;;;;;;;3.60;92.80;;;;;;5083800;28;20043;-77
2022/01/21 14:50:08;;;;;;;;;;;3.60;92.80;;;;;;5083591;28;19990;-77
2022/01/21 14:52:38;;;;;;;;;;;3.60;92.80;;;;;;5078332;28;20020;-77
2022/01/21 14:55:13;;;;;;;;;;;3.60;92.90;;;;;;5082367;28;19951;-77
2022/01/21 14:57:45;;;;;;;;;;;3.60;92.80;;;;;;5078723;28;19939;-77
2022/01/21 15:00:12;;;;;;;;;;;3.60;92.80;;;;;;5082933;28;19951;-77
2022/01/21 15:02:40;;;;;;;;;;;3.60;93.00;;;;;;5086610;28;19977;-77
2022/01/21 15:05:11;;;;;;;;;;;3.60;93.00;;;;;;5089439;28;19928;-77
2022/01/21 15:07:38;;;;;;;;;;;3.60;93.00;;;;;;5091210;28;19928;-77
2022/01/21 15:10:20;;;;;;;;;;;3.60;93.00;;;;;;5086190;28;20053;-77
2022/01/21 15:15:32;;;;;;;;;;;3.60;93.00;;;;;;5079011;28;20465;-77
2022/01/21 15:18:00;;;;;;;;;;;3.60;92.40;;;;;;5072304;28;19993;-76
2022/01/21 15:20:32;;;;;;;;;;;3.90;92.50;;;;;;5076392;28;20459;-77
2022/01/21 15:22:59;;;;;;;;;;;4.50;91.80;;;;;;5071341;28;20031;-78
2022/01/21 15:25:26;;;;;;;;;;;4.80;91.20;;;;;;5078495;28;20262;-78
2022/01/21 15:27:53;;;;;;;;;;;5.00;90.70;;;;;;5082457;28;19932;-78